sensor_id;sensor_type;location;lat;lon;timestamp;pressure;altitude;pressure_sealevel;temperature;humidity
3142;BME280;1581;51.568;6.998;2023-03-01T00:01:15;102357.94;;;1.75;93.86
3142;BME280;1581;51.568;6.998;2023-03-01T00:03:43;102365.63;;;1.78;93.75
3142;BME280;1581;51.568;6.998;2023-03-01T00:06:11;102360.84;;;1.70;93.90
3142;BME280;1581;51.568;6.998;2023-03-01T00:08:39;102353.63;;;1.88;93.49
3142;BME280;1581;51.568;6.998;2023-03-01T00:11:13;102346.00;;;1.69;93.87
3142;BME280;1581;51.568;6.998;2023-03-01T00:13:42;102347.69;;;1.70;94.00
3142;BME280;1581;51.568;6.998;2023-03-01T00:16:13;102348.09;;;1.65;94.41
3142;BME280;1581;51.568;6.998;2023-03-01T00:18:41;102347.88;;;1.54;94.68
3142;BME280;1581;51.568;6.998;2023-03-01T00:21:09;102348.88;;;1.51;94.68
3142;BME280;1581;51.568;6.998;2023-03-01T00:23:37;102343.47;;;1.54;95.38
3142;BME280;1581;51.568;6.998;2023-03-01T00:26:09;102332.13;;;1.54;94.85
3142;BME280;1581;51.568;6.998;2023-03-01T00:28:37;102344.78;;;1.47;94.98
3142;BME280;1581;51.568;6.998;2023-03-01T00:31:06;102338.09;;;1.42;95.92
3142;BME280;1581;51.568;6.998;2023-03-01T00:33:34;102342.50;;;1.41;96.22
3142;BME280;1581;51.568;6.998;2023-03-01T00:36:03;102331.63;;;1.33;96.10
3142;BME280;1581;51.568;6.998;2023-03-01T00:38:34;102334.63;;;1.27;96.87
3142;BME280;1581;51.568;6.998;2023-03-01T00:41:05;102329.84;;;1.34;96.65
3142;BME280;1581;51.568;6.998;2023-03-01T00:43:35;102320.84;;;1.24;96.81
3142;BME280;1581;51.568;6.998;2023-03-01T00:46:05;102317.66;;;1.33;97.40
3142;BME280;1581;51.568;6.998;2023-03-01T00:48:33;102322.03;;;1.32;96.95
3142;BME280;1581;51.568;6.998;2023-03-01T00:51:06;102319.97;;;1.23;96.93
3142;BME280;1581;51.568;6.998;2023-03-01T00:53:35;102311.06;;;1.26;97.07
3142;BME280;1581;51.568;6.998;2023-03-01T00:56:04;102311.75;;;1.29;97.06
3142;BME280;1581;51.568;6.998;2023-03-01T00:58:34;102311.44;;;1.20;97.88
3142;BME280;1581;51.568;6.998;2023-03-01T01:01:08;102304.22;;;1.23;97.77
3142;BME280;1581;51.568;6.998;2023-03-01T01:03:45;102310.13;;;1.13;98.10
3142;BME280;1581;51.568;6.998;2023-03-01T01:06:17;102314.03;;;1.06;97.91
3142;BME280;1581;51.568;6.998;2023-03-01T01:08:45;102311.09;;;0.96;98.72
3142;BME280;1581;51.568;6.998;2023-03-01T01:11:14;102305.38;;;0.90;99.08
3142;BME280;1581;51.568;6.998;2023-03-01T01:13:45;102309.03;;;0.87;99.49
3142;BME280;1581;51.568;6.998;2023-03-01T01:16:14;102307.16;;;0.89;100.00
3142;BME280;1581;51.568;6.998;2023-03-01T01:18:42;102293.00;;;0.92;100.00
3142;BME280;1581;51.568;6.998;2023-03-01T01:21:13;102293.94;;;0.91;99.74
3142;BME280;1581;51.568;6.998;2023-03-01T01:23:42;102294.88;;;0.90;100.00
3142;BME280;1581;51.568;6.998;2023-03-01T01:26:13;102302.09;;;0.86;100.00
3142;BME280;1581;51.568;6.998;2023-03-01T01:28:43;102279.03;;;0.91;100.00
3142;BME280;1581;51.568;6.998;2023-03-01T01:31:12;102275.75;;;0.88;100.00
3142;BME280;1581;51.568;6.998;2023-03-01T01:33:42;102277.59;;;0.86;100.00
3142;BME280;1581;51.568;6.998;2023-03-01T01:36:11;102274.75;;;0.75;100.00
3142;BME280;1581;51.568;6.998;2023-03-01T01:38:39;102271.63;;;0.84;100.00
3142;BME280;1581;51.568;6.998;2023-03-01T01:41:10;102265.06;;;0.91;99.95
3142;BME280;1581;51.568;6.998;2023-03-01T01:43:40;102264.91;;;0.94;100.00
3142;BME280;1581;51.568;6.998;2023-03-01T01:46:27;102270.09;;;0.80;99.91
3142;BME280;1581;51.568;6.998;2023-03-01T01:48:58;102272.84;;;0.79;100.00
3142;BME280;1581;51.568;6.998;2023-03-01T01:51:32;102268.03;;;0.85;100.00
3142;BME280;1581;51.568;6.998;2023-03-01T01:54:09;102267.09;;;0.86;100.00
3142;BME280;1581;51.568;6.998;2023-03-01T01:56:38;102266.38;;;0.98;100.00
3142;BME280;1581;51.568;6.998;2023-03-01T01:59:06;102263.50;;;1.02;99.88
3142;BME280;1581;51.568;6.998;2023-03-01T02:01:36;102269.34;;;0.78;99.87
3142;BME280;1581;51.568;6.998;2023-03-01T02:04:04;102272.50;;;0.98;100.00
3142;BME280;1581;51.568;6.998;2023-03-01T02:06:36;102265.41;;;0.85;99.94
3142;BME280;1581;51.568;6.998;2023-03-01T02:09:12;102265.63;;;0.82;100.00
3142;BME280;1581;51.568;6.998;2023-03-01T02:11:41;102253.81;;;0.89;99.62
3142;BME280;1581;51.568;6.998;2023-03-01T02:14:11;102245.91;;;0.75;99.82
3142;BME280;1581;51.568;6.998;2023-03-01T02:16:40;102246.75;;;0.76;99.95
3142;BME280;1581;51.568;6.998;2023-03-01T02:19:13;102254.16;;;0.69;100.00
3142;BME280;1581;51.568;6.998;2023-03-01T02:21:52;102251.28;;;0.87;100.00
3142;BME280;1581;51.568;6.998;2023-03-01T02:24:31;102237.47;;;0.70;100.00
3142;BME280;1581;51.568;6.998;2023-03-01T02:27:01;102240.25;;;0.53;100.00
3142;BME280;1581;51.568;6.998;2023-03-01T02:29:30;102240.81;;;0.58;100.00
3142;BME280;1581;51.568;6.998;2023-03-01T02:32:00;102246.38;;;0.68;100.00
3142;BME280;1581;51.568;6.998;2023-03-01T02:34:31;102244.28;;;0.59;100.00
3142;BME280;1581;51.568;6.998;2023-03-01T02:37:03;102241.06;;;0.54;100.00
3142;BME280;1581;51.568;6.998;2023-03-01T02:39:36;102242.59;;;0.58;100.00
3142;BME280;1581;51.568;6.998;2023-03-01T02:42:12;102246.34;;;0.38;100.00
3142;BME280;1581;51.568;6.998;2023-03-01T02:44:43;102248.75;;;0.27;100.00
3142;BME280;1581;51.568;6.998;2023-03-01T02:47:11;102250.66;;;0.39;100.00
3142;BME280;1581;51.568;6.998;2023-03-01T02:49:38;102241.28;;;0.35;100.00
3142;BME280;1581;51.568;6.998;2023-03-01T02:52:30;102247.28;;;0.37;100.00
3142;BME280;1581;51.568;6.998;2023-03-01T02:55:04;102248.44;;;0.47;100.00
3142;BME280;1581;51.568;6.998;2023-03-01T02:57:36;102249.47;;;0.45;100.00
3142;BME280;1581;51.568;6.998;2023-03-01T03:00:11;102245.31;;;0.41;100.00
3142;BME280;1581;51.568;6.998;2023-03-01T03:02:46;102245.03;;;0.31;100.00
3142;BME280;1581;51.568;6.998;2023-03-01T03:05:16;102239.41;;;0.37;100.00
3142;BME280;1581;51.568;6.998;2023-03-01T03:07:46;102246.06;;;0.29;100.00
3142;BME280;1581;51.568;6.998;2023-03-01T03:10:18;102249.41;;;0.31;100.00
3142;BME280;1581;51.568;6.998;2023-03-01T03:12:50;102251.81;;;0.20;100.00
3142;BME280;1581;51.568;6.998;2023-03-01T03:15:20;102241.06;;;0.24;100.00
3142;BME280;1581;51.568;6.998;2023-03-01T03:17:49;102249.25;;;0.18;100.00
3142;BME280;1581;51.568;6.998;2023-03-01T03:20:21;102241.81;;;0.26;100.00
3142;BME280;1581;51.568;6.998;2023-03-01T03:22:53;102238.00;;;0.32;100.00
3142;BME280;1581;51.568;6.998;2023-03-01T03:25:22;102233.41;;;0.35;100.00
3142;BME280;1581;51.568;6.998;2023-03-01T03:27:51;102235.47;;;0.30;100.00
3142;BME280;1581;51.568;6.998;2023-03-01T03:30:26;102237.19;;;0.16;100.00
3142;BME280;1581;51.568;6.998;2023-03-01T03:32:55;102233.97;;;0.11;100.00
3142;BME280;1581;51.568;6.998;2023-03-01T03:35:25;102233.66;;;0.01;100.00
3142;BME280;1581;51.568;6.998;2023-03-01T03:37:57;102223.22;;;0.15;100.00
3142;BME280;1581;51.568;6.998;2023-03-01T03:40:35;102232.31;;;0.10;100.00
3142;BME280;1581;51.568;6.998;2023-03-01T03:43:04;102233.22;;;0.09;100.00
3142;BME280;1581;51.568;6.998;2023-03-01T03:45:34;102222.56;;;0.12;100.00
3142;BME280;1581;51.568;6.998;2023-03-01T03:48:04;102224.75;;;0.19;100.00
3142;BME280;1581;51.568;6.998;2023-03-01T03:50:33;102223.41;;;0.12;100.00
3142;BME280;1581;51.568;6.998;2023-03-01T03:53:02;102215.56;;;0.12;100.00
3142;BME280;1581;51.568;6.998;2023-03-01T03:55:31;102218.44;;;0.08;100.00
3142;BME280;1581;51.568;6.998;2023-03-01T03:58:02;102214.44;;;0.16;100.00
3142;BME280;1581;51.568;6.998;2023-03-01T04:00:39;102215.16;;;0.04;100.00
3142;BME280;1581;51.568;6.998;2023-03-01T04:03:09;102211.50;;;-0.08;100.00
3142;BME280;1581;51.568;6.998;2023-03-01T04:05:38;102205.34;;;-0.07;100.00
3142;BME280;1581;51.568;6.998;2023-03-01T04:08:07;102203.13;;;0.00;100.00
3142;BME280;1581;51.568;6.998;2023-03-01T04:10:37;102198.69;;;0.16;100.00
3142;BME280;1581;51.568;6.998;2023-03-01T04:13:05;102198.22;;;0.10;100.00
3142;BME280;1581;51.568;6.998;2023-03-01T04:15:34;102197.91;;;0.00;100.00
3142;BME280;1581;51.568;6.998;2023-03-01T04:18:07;102194.78;;;-0.06;100.00
3142;BME280;1581;51.568;6.998;2023-03-01T04:20:37;102194.34;;;0.01;100.00
3142;BME280;1581;51.568;6.998;2023-03-01T04:23:07;102200.16;;;0.06;100.00
3142;BME280;1581;51.568;6.998;2023-03-01T04:25:41;102198.06;;;-0.03;100.00
3142;BME280;1581;51.568;6.998;2023-03-01T04:28:09;102197.56;;;-0.09;100.00
3142;BME280;1581;51.568;6.998;2023-03-01T04:30:38;102207.56;;;-0.15;100.00
3142;BME280;1581;51.568;6.998;2023-03-01T04:33:10;102203.66;;;-0.08;100.00
3142;BME280;1581;51.568;6.998;2023-03-01T04:35:42;102206.44;;;-0.11;100.00
3142;BME280;1581;51.568;6.998;2023-03-01T04:38:10;102195.34;;;0.14;100.00
3142;BME280;1581;51.568;6.998;2023-03-01T04:40:38;102192.81;;;-0.03;100.00
3142;BME280;1581;51.568;6.998;2023-03-01T04:43:09;102197.13;;;-0.02;100.00
3142;BME280;1581;51.568;6.998;2023-03-01T04:45:37;102206.84;;;-0.03;100.00
3142;BME280;1581;51.568;6.998;2023-03-01T04:48:06;102202.72;;;-0.07;100.00
3142;BME280;1581;51.568;6.998;2023-03-01T04:50:35;102190.97;;;-0.01;100.00
3142;BME280;1581;51.568;6.998;2023-03-01T04:53:03;102191.06;;;-0.02;100.00
3142;BME280;1581;51.568;6.998;2023-03-01T04:55:31;102186.66;;;-0.02;100.00
3142;BME280;1581;51.568;6.998;2023-03-01T04:57:59;102184.28;;;-0.06;100.00
3142;BME280;1581;51.568;6.998;2023-03-01T05:00:26;102191.22;;;-0.05;100.00
3142;BME280;1581;51.568;6.998;2023-03-01T05:02:57;102187.94;;;-0.08;100.00
3142;BME280;1581;51.568;6.998;2023-03-01T05:05:28;102195.53;;;-0.19;100.00
3142;BME280;1581;51.568;6.998;2023-03-01T05:07:59;102193.69;;;-0.17;100.00
3142;BME280;1581;51.568;6.998;2023-03-01T05:10:29;102191.22;;;-0.20;100.00
3142;BME280;1581;51.568;6.998;2023-03-01T05:12:58;102187.34;;;-0.13;100.00
3142;BME280;1581;51.568;6.998;2023-03-01T05:15:26;102189.38;;;-0.18;100.00
3142;BME280;1581;51.568;6.998;2023-03-01T05:17:57;102186.41;;;-0.12;100.00
3142;BME280;1581;51.568;6.998;2023-03-01T05:20:29;102190.06;;;-0.15;100.00
3142;BME280;1581;51.568;6.998;2023-03-01T05:22:59;102181.13;;;-0.26;100.00
3142;BME280;1581;51.568;6.998;2023-03-01T05:25:32;102173.50;;;-0.31;100.00
3142;BME280;1581;51.568;6.998;2023-03-01T05:28:01;102175.38;;;-0.33;100.00
3142;BME280;1581;51.568;6.998;2023-03-01T05:30:32;102183.72;;;-0.26;100.00
3142;BME280;1581;51.568;6.998;2023-03-01T05:33:01;102180.84;;;-0.37;100.00
3142;BME280;1581;51.568;6.998;2023-03-01T05:35:29;102181.63;;;-0.35;100.00
3142;BME280;1581;51.568;6.998;2023-03-01T05:38:01;102177.31;;;-0.36;100.00
3142;BME280;1581;51.568;6.998;2023-03-01T05:40:29;102177.81;;;-0.45;100.00
3142;BME280;1581;51.568;6.998;2023-03-01T05:42:57;102181.78;;;-0.38;100.00
3142;BME280;1581;51.568;6.998;2023-03-01T05:45:26;102177.47;;;-0.39;100.00
3142;BME280;1581;51.568;6.998;2023-03-01T05:47:56;102167.41;;;-0.47;100.00
3142;BME280;1581;51.568;6.998;2023-03-01T05:50:27;102172.91;;;-0.51;100.00
3142;BME280;1581;51.568;6.998;2023-03-01T05:53:02;102172.13;;;-0.53;100.00
3142;BME280;1581;51.568;6.998;2023-03-01T05:55:32;102179.84;;;-0.50;100.00
3142;BME280;1581;51.568;6.998;2023-03-01T05:58:01;102170.63;;;-0.57;100.00
3142;BME280;1581;51.568;6.998;2023-03-01T06:00:30;102171.03;;;-0.65;100.00
3142;BME280;1581;51.568;6.998;2023-03-01T06:02:59;102176.03;;;-0.60;100.00
3142;BME280;1581;51.568;6.998;2023-03-01T06:05:28;102173.75;;;-0.51;100.00
3142;BME280;1581;51.568;6.998;2023-03-01T06:07:59;102174.59;;;-0.50;100.00
3142;BME280;1581;51.568;6.998;2023-03-01T06:10:28;102169.19;;;-0.47;100.00
3142;BME280;1581;51.568;6.998;2023-03-01T06:12:56;102167.66;;;-0.51;100.00
3142;BME280;1581;51.568;6.998;2023-03-01T06:15:25;102166.75;;;-0.50;100.00
3142;BME280;1581;51.568;6.998;2023-03-01T06:17:55;102162.03;;;-0.44;100.00
3142;BME280;1581;51.568;6.998;2023-03-01T06:20:25;102155.25;;;-0.48;100.00
3142;BME280;1581;51.568;6.998;2023-03-01T06:22:57;102160.22;;;-0.59;100.00
3142;BME280;1581;51.568;6.998;2023-03-01T06:25:29;102157.34;;;-0.54;100.00
3142;BME280;1581;51.568;6.998;2023-03-01T06:27:59;102155.44;;;-0.51;100.00
3142;BME280;1581;51.568;6.998;2023-03-01T06:30:30;102159.25;;;-0.56;100.00
3142;BME280;1581;51.568;6.998;2023-03-01T06:33:02;102160.06;;;-0.56;100.00
3142;BME280;1581;51.568;6.998;2023-03-01T06:35:31;102152.31;;;-0.57;100.00
3142;BME280;1581;51.568;6.998;2023-03-01T06:38:04;102154.47;;;-0.50;100.00
3142;BME280;1581;51.568;6.998;2023-03-01T06:40:37;102144.88;;;-0.49;100.00
3142;BME280;1581;51.568;6.998;2023-03-01T06:43:08;102151.81;;;-0.48;100.00
3142;BME280;1581;51.568;6.998;2023-03-01T06:45:39;102158.47;;;-0.43;100.00
3142;BME280;1581;51.568;6.998;2023-03-01T06:48:09;102153.13;;;-0.26;100.00
3142;BME280;1581;51.568;6.998;2023-03-01T06:50:39;102158.88;;;-0.35;100.00
3142;BME280;1581;51.568;6.998;2023-03-01T06:53:08;102163.75;;;-0.13;100.00
3142;BME280;1581;51.568;6.998;2023-03-01T06:55:41;102154.28;;;-0.01;100.00
3142;BME280;1581;51.568;6.998;2023-03-01T06:58:11;102169.47;;;0.08;100.00
3142;BME280;1581;51.568;6.998;2023-03-01T07:00:41;102161.84;;;0.19;100.00
3142;BME280;1581;51.568;6.998;2023-03-01T07:03:11;102161.13;;;0.31;100.00
3142;BME280;1581;51.568;6.998;2023-03-01T07:05:41;102158.19;;;0.51;100.00
3142;BME280;1581;51.568;6.998;2023-03-01T07:08:12;102154.16;;;0.46;100.00
3142;BME280;1581;51.568;6.998;2023-03-01T07:10:41;102162.50;;;0.66;100.00
3142;BME280;1581;51.568;6.998;2023-03-01T07:13:09;102165.25;;;0.79;100.00
3142;BME280;1581;51.568;6.998;2023-03-01T07:15:37;102169.69;;;0.92;100.00
3142;BME280;1581;51.568;6.998;2023-03-01T07:18:04;102164.78;;;1.00;100.00
3142;BME280;1581;51.568;6.998;2023-03-01T07:20:32;102164.22;;;0.95;100.00
3142;BME280;1581;51.568;6.998;2023-03-01T07:23:00;102163.09;;;0.99;100.00
3142;BME280;1581;51.568;6.998;2023-03-01T07:25:28;102164.25;;;1.23;100.00
3142;BME280;1581;51.568;6.998;2023-03-01T07:27:57;102160.84;;;1.21;100.00
3142;BME280;1581;51.568;6.998;2023-03-01T07:30:25;102155.13;;;1.28;100.00
3142;BME280;1581;51.568;6.998;2023-03-01T07:32:54;102158.88;;;1.38;99.49
3142;BME280;1581;51.568;6.998;2023-03-01T07:35:23;102160.97;;;1.73;97.10
3142;BME280;1581;51.568;6.998;2023-03-01T07:37:51;102148.75;;;1.72;97.38
3142;BME280;1581;51.568;6.998;2023-03-01T07:40:19;102160.03;;;1.61;97.04
3142;BME280;1581;51.568;6.998;2023-03-01T07:42:47;102155.88;;;1.70;97.30
3142;BME280;1581;51.568;6.998;2023-03-01T07:45:16;102159.13;;;1.88;96.45
3142;BME280;1581;51.568;6.998;2023-03-01T07:47:44;102152.63;;;1.93;95.38
3142;BME280;1581;51.568;6.998;2023-03-01T07:50:13;102151.47;;;1.97;95.23
3142;BME280;1581;51.568;6.998;2023-03-01T07:52:41;102152.81;;;1.90;95.95
3142;BME280;1581;51.568;6.998;2023-03-01T07:55:10;102148.47;;;2.03;94.89
3142;BME280;1581;51.568;6.998;2023-03-01T07:57:38;102158.38;;;2.12;95.18
3142;BME280;1581;51.568;6.998;2023-03-01T08:00:09;102151.44;;;2.24;93.64
3142;BME280;1581;51.568;6.998;2023-03-01T08:02:39;102147.16;;;2.35;92.95
3142;BME280;1581;51.568;6.998;2023-03-01T08:05:09;102149.44;;;2.27;93.42
3142;BME280;1581;51.568;6.998;2023-03-01T08:07:37;102158.09;;;2.29;92.42
3142;BME280;1581;51.568;6.998;2023-03-01T08:10:06;102144.75;;;2.32;92.99
3142;BME280;1581;51.568;6.998;2023-03-01T08:12:33;102149.19;;;2.44;92.62
3142;BME280;1581;51.568;6.998;2023-03-01T08:15:01;102152.16;;;2.52;91.82
3142;BME280;1581;51.568;6.998;2023-03-01T08:17:29;102144.75;;;2.57;91.24
3142;BME280;1581;51.568;6.998;2023-03-01T08:19:58;102147.28;;;2.46;90.05
3142;BME280;1581;51.568;6.998;2023-03-01T08:22:26;102153.16;;;2.50;91.11
3142;BME280;1581;51.568;6.998;2023-03-01T08:24:54;102150.47;;;2.76;90.70
3142;BME280;1581;51.568;6.998;2023-03-01T08:27:22;102154.25;;;2.84;89.70
3142;BME280;1581;51.568;6.998;2023-03-01T08:29:49;102155.09;;;2.85;90.16
3142;BME280;1581;51.568;6.998;2023-03-01T08:32:17;102147.94;;;2.87;89.93
3142;BME280;1581;51.568;6.998;2023-03-01T08:34:48;102143.94;;;2.94;90.49
3142;BME280;1581;51.568;6.998;2023-03-01T08:37:17;102144.34;;;3.00;89.89
3142;BME280;1581;51.568;6.998;2023-03-01T08:39:45;102146.13;;;3.12;89.60
3142;BME280;1581;51.568;6.998;2023-03-01T08:42:14;102140.56;;;2.92;89.07
3142;BME280;1581;51.568;6.998;2023-03-01T08:44:41;102140.56;;;2.92;90.28
3142;BME280;1581;51.568;6.998;2023-03-01T08:47:09;102133.25;;;3.20;89.09
3142;BME280;1581;51.568;6.998;2023-03-01T08:49:37;102141.47;;;3.28;87.65
3142;BME280;1581;51.568;6.998;2023-03-01T08:52:05;102134.28;;;3.30;87.64
3142;BME280;1581;51.568;6.998;2023-03-01T08:54:34;102131.66;;;3.42;87.93
3142;BME280;1581;51.568;6.998;2023-03-01T08:57:03;102132.69;;;3.40;86.38
3142;BME280;1581;51.568;6.998;2023-03-01T08:59:30;102129.69;;;3.57;86.53
3142;BME280;1581;51.568;6.998;2023-03-01T09:02:03;102126.41;;;3.66;86.14
3142;BME280;1581;51.568;6.998;2023-03-01T09:04:31;102130.19;;;3.85;86.51
3142;BME280;1581;51.568;6.998;2023-03-01T09:06:59;102135.47;;;3.85;84.23
3142;BME280;1581;51.568;6.998;2023-03-01T09:09:27;102126.47;;;4.00;83.05
3142;BME280;1581;51.568;6.998;2023-03-01T09:11:56;102128.97;;;4.02;82.36
3142;BME280;1581;51.568;6.998;2023-03-01T09:14:24;102119.66;;;4.09;81.27
3142;BME280;1581;51.568;6.998;2023-03-01T09:16:52;102121.44;;;4.08;81.07
3142;BME280;1581;51.568;6.998;2023-03-01T09:19:20;102117.63;;;4.12;79.61
3142;BME280;1581;51.568;6.998;2023-03-01T09:21:48;102121.03;;;4.25;79.87
3142;BME280;1581;51.568;6.998;2023-03-01T09:24:21;102121.91;;;4.36;79.09
3142;BME280;1581;51.568;6.998;2023-03-01T09:26:51;102110.28;;;4.39;79.04
3142;BME280;1581;51.568;6.998;2023-03-01T09:29:22;102105.03;;;4.50;79.47
3142;BME280;1581;51.568;6.998;2023-03-01T09:31:50;102110.19;;;4.51;77.43
3142;BME280;1581;51.568;6.998;2023-03-01T09:34:23;102109.56;;;4.48;77.19
3142;BME280;1581;51.568;6.998;2023-03-01T09:36:51;102114.41;;;4.54;78.08
3142;BME280;1581;51.568;6.998;2023-03-01T09:39:19;102109.72;;;4.57;76.58
3142;BME280;1581;51.568;6.998;2023-03-01T09:42:00;102102.78;;;4.67;75.68
3142;BME280;1581;51.568;6.998;2023-03-01T09:44:36;102105.09;;;4.83;75.32
3142;BME280;1581;51.568;6.998;2023-03-01T09:47:09;102103.88;;;4.98;73.88
3142;BME280;1581;51.568;6.998;2023-03-01T09:49:41;102104.09;;;4.95;74.74
3142;BME280;1581;51.568;6.998;2023-03-01T09:52:23;102104.97;;;5.06;73.54
3142;BME280;1581;51.568;6.998;2023-03-01T09:54:55;102113.00;;;5.15;72.13
3142;BME280;1581;51.568;6.998;2023-03-01T09:57:33;102099.06;;;5.24;72.38
3142;BME280;1581;51.568;6.998;2023-03-01T10:00:28;102098.09;;;5.36;71.61
3142;BME280;1581;51.568;6.998;2023-03-01T10:03:04;102103.00;;;5.30;69.42
3142;BME280;1581;51.568;6.998;2023-03-01T10:05:47;102107.72;;;5.26;68.68
3142;BME280;1581;51.568;6.998;2023-03-01T10:08:32;102098.06;;;5.47;68.97
3142;BME280;1581;51.568;6.998;2023-03-01T10:11:12;102095.56;;;5.46;68.92
3142;BME280;1581;51.568;6.998;2023-03-01T10:13:52;102095.75;;;5.65;68.42
3142;BME280;1581;51.568;6.998;2023-03-01T10:16:32;102094.88;;;5.64;66.76
3142;BME280;1581;51.568;6.998;2023-03-01T10:19:05;102078.16;;;5.86;66.19
3142;BME280;1581;51.568;6.998;2023-03-01T10:21:42;102072.34;;;5.92;65.33
3142;BME280;1581;51.568;6.998;2023-03-01T10:24:15;102066.34;;;5.90;64.91
3142;BME280;1581;51.568;6.998;2023-03-01T10:26:55;102064.50;;;6.21;65.31
3142;BME280;1581;51.568;6.998;2023-03-01T10:29:29;102063.00;;;5.88;63.67
3142;BME280;1581;51.568;6.998;2023-03-01T10:32:00;102065.34;;;6.01;60.84
3142;BME280;1581;51.568;6.998;2023-03-01T10:34:30;102055.75;;;6.21;63.27
3142;BME280;1581;51.568;6.998;2023-03-01T10:37:09;102055.53;;;6.54;62.14
3142;BME280;1581;51.568;6.998;2023-03-01T10:39:37;102059.88;;;6.34;60.34
3142;BME280;1581;51.568;6.998;2023-03-01T10:42:28;102055.28;;;6.16;60.91
3142;BME280;1581;51.568;6.998;2023-03-01T10:44:57;102051.84;;;6.45;60.63
3142;BME280;1581;51.568;6.998;2023-03-01T10:47:28;102056.47;;;6.73;60.88
3142;BME280;1581;51.568;6.998;2023-03-01T10:49:59;102055.50;;;6.74;58.92
3142;BME280;1581;51.568;6.998;2023-03-01T10:52:32;102047.25;;;7.07;58.76
3142;BME280;1581;51.568;6.998;2023-03-01T10:55:04;102049.78;;;6.79;58.63
3142;BME280;1581;51.568;6.998;2023-03-01T10:57:36;102039.00;;;7.00;58.87
3142;BME280;1581;51.568;6.998;2023-03-01T11:00:24;102031.72;;;6.93;57.28
3142;BME280;1581;51.568;6.998;2023-03-01T11:03:11;102024.78;;;7.01;58.03
3142;BME280;1581;51.568;6.998;2023-03-01T11:05:56;102039.97;;;7.48;57.66
3142;BME280;1581;51.568;6.998;2023-03-01T11:08:37;102034.63;;;7.29;55.81
3142;BME280;1581;51.568;6.998;2023-03-01T11:11:19;102020.69;;;7.65;56.78
3142;BME280;1581;51.568;6.998;2023-03-01T11:13:55;102017.38;;;7.82;55.76
3142;BME280;1581;51.568;6.998;2023-03-01T11:16:35;102018.88;;;7.94;54.56
3142;BME280;1581;51.568;6.998;2023-03-01T11:19:19;102006.75;;;8.01;52.90
3142;BME280;1581;51.568;6.998;2023-03-01T11:22:00;102008.00;;;7.78;53.54
3142;BME280;1581;51.568;6.998;2023-03-01T11:24:39;102003.38;;;7.99;53.22
3142;BME280;1581;51.568;6.998;2023-03-01T11:27:18;102005.88;;;8.00;52.97
3142;BME280;1581;51.568;6.998;2023-03-01T11:29:52;102007.84;;;8.27;52.04
3142;BME280;1581;51.568;6.998;2023-03-01T11:32:28;101995.53;;;8.26;51.71
3142;BME280;1581;51.568;6.998;2023-03-01T11:35:05;101993.44;;;8.29;51.48
3142;BME280;1581;51.568;6.998;2023-03-01T11:37:41;101993.44;;;8.29;50.32
3142;BME280;1581;51.568;6.998;2023-03-01T11:40:16;101990.59;;;8.50;50.42
3142;BME280;1581;51.568;6.998;2023-03-01T11:43:01;102001.31;;;8.57;50.20
3142;BME280;1581;51.568;6.998;2023-03-01T11:45:52;101994.19;;;8.58;50.15
3142;BME280;1581;51.568;6.998;2023-03-01T11:48:44;101999.06;;;8.62;49.39
3142;BME280;1581;51.568;6.998;2023-03-01T11:51:24;101995.63;;;8.79;48.79
3142;BME280;1581;51.568;6.998;2023-03-01T11:54:13;101997.56;;;8.87;49.48
3142;BME280;1581;51.568;6.998;2023-03-01T11:56:50;101994.91;;;9.14;50.54
3142;BME280;1581;51.568;6.998;2023-03-01T12:00:07;101989.44;;;8.88;50.38
3142;BME280;1581;51.568;6.998;2023-03-01T12:03:11;101994.25;;;9.29;50.54
3142;BME280;1581;51.568;6.998;2023-03-01T12:09:38;101980.53;;;9.24;48.72
3142;BME280;1581;51.568;6.998;2023-03-01T12:12:32;101982.31;;;9.33;48.44
3142;BME280;1581;51.568;6.998;2023-03-01T12:15:31;101975.75;;;9.10;47.69
3142;BME280;1581;51.568;6.998;2023-03-01T12:18:34;101971.97;;;9.30;47.58
3142;BME280;1581;51.568;6.998;2023-03-01T12:21:17;101973.09;;;9.45;46.97
3142;BME280;1581;51.568;6.998;2023-03-01T12:27:30;101967.78;;;9.10;46.33
3142;BME280;1581;51.568;6.998;2023-03-01T12:30:21;101955.94;;;9.22;46.71
3142;BME280;1581;51.568;6.998;2023-03-01T12:33:07;101958.59;;;8.95;46.70
3142;BME280;1581;51.568;6.998;2023-03-01T12:35:59;101959.50;;;8.86;46.35
3142;BME280;1581;51.568;6.998;2023-03-01T12:38:41;101944.41;;;9.04;46.00
3142;BME280;1581;51.568;6.998;2023-03-01T12:41:43;101937.63;;;9.19;46.43
3142;BME280;1581;51.568;6.998;2023-03-01T12:44:52;101943.25;;;9.34;46.04
3142;BME280;1581;51.568;6.998;2023-03-01T12:47:36;101938.91;;;9.50;45.55
3142;BME280;1581;51.568;6.998;2023-03-01T12:50:20;101940.25;;;9.54;44.60
3142;BME280;1581;51.568;6.998;2023-03-01T12:52:52;101937.88;;;9.43;44.11
3142;BME280;1581;51.568;6.998;2023-03-01T12:55:29;101931.59;;;9.17;43.21
3142;BME280;1581;51.568;6.998;2023-03-01T12:58:07;101921.94;;;9.16;43.78
3142;BME280;1581;51.568;6.998;2023-03-01T13:00:55;101923.41;;;9.45;44.83
3142;BME280;1581;51.568;6.998;2023-03-01T13:03:42;101916.66;;;9.51;43.81
3142;BME280;1581;51.568;6.998;2023-03-01T13:06:22;101920.34;;;9.58;44.33
3142;BME280;1581;51.568;6.998;2023-03-01T13:09:02;101921.81;;;9.35;45.05
3142;BME280;1581;51.568;6.998;2023-03-01T13:11:34;101925.09;;;9.46;44.05
3142;BME280;1581;51.568;6.998;2023-03-01T13:14:45;101912.06;;;9.26;45.09
3142;BME280;1581;51.568;6.998;2023-03-01T13:17:33;101913.81;;;9.70;44.67
3142;BME280;1581;51.568;6.998;2023-03-01T13:20:16;101914.81;;;10.12;44.47
3142;BME280;1581;51.568;6.998;2023-03-01T13:22:46;101923.78;;;10.11;43.90
3142;BME280;1581;51.568;6.998;2023-03-01T13:25:18;101914.88;;;10.27;42.65
3142;BME280;1581;51.568;6.998;2023-03-01T13:27:47;101906.72;;;10.29;41.80
3142;BME280;1581;51.568;6.998;2023-03-01T13:30:44;101897.63;;;10.39;42.64
3142;BME280;1581;51.568;6.998;2023-03-01T13:33:41;101905.72;;;10.63;42.56
3142;BME280;1581;51.568;6.998;2023-03-01T13:36:13;101899.69;;;11.11;41.99
3142;BME280;1581;51.568;6.998;2023-03-01T13:39:05;101892.72;;;11.17;42.25
3142;BME280;1581;51.568;6.998;2023-03-01T13:41:54;101891.69;;;11.11;40.05
3142;BME280;1581;51.568;6.998;2023-03-01T13:44:28;101879.38;;;11.33;41.31
3142;BME280;1581;51.568;6.998;2023-03-01T13:47:13;101879.75;;;11.54;40.40
3142;BME280;1581;51.568;6.998;2023-03-01T13:49:47;101878.06;;;11.93;39.25
3142;BME280;1581;51.568;6.998;2023-03-01T13:52:38;101872.94;;;12.30;39.20
3142;BME280;1581;51.568;6.998;2023-03-01T13:55:19;101873.28;;;12.35;38.80